Accueil
METAR-TAF:

METAR-TAF

Aéroports :

Base aérienne 116 Luxeuil-Saint Sauveur

Luxeuil-les-Bains, France

latitude: 47-47N, longitude: 006-21E, altitude: 278 m

Observation

Le bulletin a été fait il y a 18 minutes, à 23:30 UTC
Vent 6 kt de est/nord-est
Température 0°C
Humidité 93%
Pression 1020 hPa
Visibilité: 5000 m
brume

METAR: LFSX 242330Z AUTO 07006KT 5000 BR NSC 00/M01 Q1020

Heure: 00:48 (23:48 UTC)

Prévision

Le bulletin a été fait il y a 3 heures et 48 minutes, à 20:00 UTC
Prévision valable du 24 à 21 UTC au 25 à 21 UTC
Vent 5 kt de est/sud-est
Visibilité: 7000 m

TAF: LFSX 242000Z 2421/2521 11005KT 7000 NSC

Observations et prévisions météorologiques de plus de 4000 aéroports (messages METAR et TAF).

Les stations disponibles sont représentées par des disques jaunes et rouges sur la carte.

Passer la souris dessus pour voir le nom de la station.

Cliquer dessus pour voir les observations et prévisions météorologiques.

Pour changer de carte: cliquez sur les boutons verts avec une croix noire pour zoomer, sur le bouton vert avec un tiret pour effectuer un zoom arrière, ou sur les flèches vertes pour les cartes adjacentes.


METAR-TAF: